sensor_id;sensor_type;location;lat;lon;timestamp;P1;durP1;ratioP1;P2;durP2;ratioP2
20381;SDS011;10350;51.280;12.400;2023-11-22T01:47:57;26.92;;;25.15;;
20381;SDS011;10350;51.280;12.400;2023-11-22T02:06:16;27.20;;;25.20;;
20381;SDS011;10350;51.280;12.400;2023-11-22T02:09:21;27.00;;;25.20;;
20381;SDS011;10350;51.280;12.400;2023-11-22T03:00:56;29.38;;;27.48;;
20381;SDS011;10350;51.280;12.400;2023-11-22T03:03:23;31.85;;;29.17;;
20381;SDS011;10350;51.280;12.400;2023-11-22T03:05:49;29.98;;;28.13;;
20381;SDS011;10350;51.280;12.400;2023-11-22T03:08:15;30.60;;;28.60;;
20381;SDS011;10350;51.280;12.400;2023-11-22T03:10:42;30.77;;;28.60;;
20381;SDS011;10350;51.280;12.400;2023-11-22T03:13:08;30.05;;;28.15;;
20381;SDS011;10350;51.280;12.400;2023-11-22T03:15:34;29.67;;;27.88;;
20381;SDS011;10350;51.280;12.400;2023-11-22T03:18:01;31.13;;;29.17;;
20381;SDS011;10350;51.280;12.400;2023-11-22T03:20:28;31.30;;;29.20;;
20381;SDS011;10350;51.280;12.400;2023-11-22T03:22:55;31.45;;;29.55;;
20381;SDS011;10350;51.280;12.400;2023-11-22T03:25:21;30.23;;;28.33;;
20381;SDS011;10350;51.280;12.400;2023-11-22T03:27:48;30.42;;;28.35;;
20381;SDS011;10350;51.280;12.400;2023-11-22T03:30:14;30.73;;;28.42;;
20381;SDS011;10350;51.280;12.400;2023-11-22T03:32:40;31.80;;;29.45;;
20381;SDS011;10350;51.280;12.400;2023-11-22T03:35:06;28.98;;;26.98;;
20381;SDS011;10350;51.280;12.400;2023-11-22T03:37:33;32.30;;;30.38;;
20381;SDS011;10350;51.280;12.400;2023-11-22T03:39:59;31.52;;;29.23;;
20381;SDS011;10350;51.280;12.400;2023-11-22T03:42:25;30.83;;;28.48;;
20381;SDS011;10350;51.280;12.400;2023-11-22T03:44:54;31.90;;;29.80;;
20381;SDS011;10350;51.280;12.400;2023-11-22T03:47:20;31.67;;;29.42;;
20381;SDS011;10350;51.280;12.400;2023-11-22T03:49:46;32.40;;;29.88;;
20381;SDS011;10350;51.280;12.400;2023-11-22T03:52:12;30.40;;;28.40;;
20381;SDS011;10350;51.280;12.400;2023-11-22T03:54:39;29.95;;;27.92;;
20381;SDS011;10350;51.280;12.400;2023-11-22T03:57:05;31.38;;;29.15;;
20381;SDS011;10350;51.280;12.400;2023-11-22T03:59:31;30.75;;;28.48;;
20381;SDS011;10350;51.280;12.400;2023-11-22T04:01:57;30.80;;;28.80;;
20381;SDS011;10350;51.280;12.400;2023-11-22T04:04:23;30.42;;;28.40;;
20381;SDS011;10350;51.280;12.400;2023-11-22T04:06:49;31.05;;;29.10;;
20381;SDS011;10350;51.280;12.400;2023-11-22T04:09:15;29.80;;;27.77;;
20381;SDS011;10350;51.280;12.400;2023-11-22T04:11:45;29.10;;;26.90;;
20381;SDS011;10350;51.280;12.400;2023-11-22T04:14:12;26.37;;;24.73;;
20381;SDS011;10350;51.280;12.400;2023-11-22T04:16:38;27.92;;;26.30;;
20381;SDS011;10350;51.280;12.400;2023-11-22T04:19:04;29.08;;;27.17;;
20381;SDS011;10350;51.280;12.400;2023-11-22T04:21:30;28.38;;;26.15;;
20381;SDS011;10350;51.280;12.400;2023-11-22T04:23:56;26.38;;;24.58;;
20381;SDS011;10350;51.280;12.400;2023-11-22T04:26:22;27.17;;;25.15;;
20381;SDS011;10350;51.280;12.400;2023-11-22T04:28:49;26.63;;;24.42;;
20381;SDS011;10350;51.280;12.400;2023-11-22T04:31:15;27.88;;;25.88;;
20381;SDS011;10350;51.280;12.400;2023-11-22T04:33:42;26.50;;;24.65;;
20381;SDS011;10350;51.280;12.400;2023-11-22T04:36:08;27.08;;;25.10;;
20381;SDS011;10350;51.280;12.400;2023-11-22T04:38:34;25.65;;;23.90;;
20381;SDS011;10350;51.280;12.400;2023-11-22T04:41:00;26.30;;;23.02;;
20381;SDS011;10350;51.280;12.400;2023-11-22T04:43:26;26.55;;;24.80;;
20381;SDS011;10350;51.280;12.400;2023-11-22T04:45:52;25.63;;;23.73;;
20381;SDS011;10350;51.280;12.400;2023-11-22T04:48:18;25.75;;;23.85;;
20381;SDS011;10350;51.280;12.400;2023-11-22T04:50:43;25.00;;;23.30;;
20381;SDS011;10350;51.280;12.400;2023-11-22T04:53:10;26.15;;;24.45;;
20381;SDS011;10350;51.280;12.400;2023-11-22T04:55:36;25.58;;;23.95;;
20381;SDS011;10350;51.280;12.400;2023-11-22T04:58:02;27.58;;;25.73;;
20381;SDS011;10350;51.280;12.400;2023-11-22T05:00:28;26.75;;;24.90;;
20381;SDS011;10350;51.280;12.400;2023-11-22T05:02:54;25.02;;;23.23;;
20381;SDS011;10350;51.280;12.400;2023-11-22T05:05:20;24.90;;;23.15;;
20381;SDS011;10350;51.280;12.400;2023-11-22T05:07:46;27.05;;;25.08;;
20381;SDS011;10350;51.280;12.400;2023-11-22T05:10:12;25.70;;;24.00;;
20381;SDS011;10350;51.280;12.400;2023-11-22T05:12:39;27.00;;;25.08;;
20381;SDS011;10350;51.280;12.400;2023-11-22T05:15:06;26.50;;;24.77;;
20381;SDS011;10350;51.280;12.400;2023-11-22T05:17:32;27.23;;;25.42;;
20381;SDS011;10350;51.280;12.400;2023-11-22T05:19:58;27.63;;;25.42;;
20381;SDS011;10350;51.280;12.400;2023-11-22T05:22:24;28.15;;;26.35;;
20381;SDS011;10350;51.280;12.400;2023-11-22T05:24:50;29.52;;;27.58;;
20381;SDS011;10350;51.280;12.400;2023-11-22T05:27:16;30.30;;;28.08;;
20381;SDS011;10350;51.280;12.400;2023-11-22T05:29:42;27.67;;;25.92;;
20381;SDS011;10350;51.280;12.400;2023-11-22T05:32:08;28.60;;;26.83;;
20381;SDS011;10350;51.280;12.400;2023-11-22T05:34:34;28.92;;;26.92;;
20381;SDS011;10350;51.280;12.400;2023-11-22T05:37:00;29.23;;;27.23;;
20381;SDS011;10350;51.280;12.400;2023-11-22T05:39:26;27.70;;;25.85;;
20381;SDS011;10350;51.280;12.400;2023-11-22T05:41:53;29.83;;;27.83;;
20381;SDS011;10350;51.280;12.400;2023-11-22T05:44:19;30.02;;;27.88;;
20381;SDS011;10350;51.280;12.400;2023-11-22T05:46:45;27.88;;;25.85;;
20381;SDS011;10350;51.280;12.400;2023-11-22T05:49:11;27.67;;;26.02;;
20381;SDS011;10350;51.280;12.400;2023-11-22T05:51:37;28.02;;;26.02;;
20381;SDS011;10350;51.280;12.400;2023-11-22T05:54:03;28.80;;;26.40;;
20381;SDS011;10350;51.280;12.400;2023-11-22T05:56:29;29.05;;;26.90;;
20381;SDS011;10350;51.280;12.400;2023-11-22T05:58:56;27.55;;;25.58;;
20381;SDS011;10350;51.280;12.400;2023-11-22T06:01:24;29.35;;;27.40;;
20381;SDS011;10350;51.280;12.400;2023-11-22T06:03:51;27.90;;;26.15;;
20381;SDS011;10350;51.280;12.400;2023-11-22T06:06:17;27.20;;;25.42;;
20381;SDS011;10350;51.280;12.400;2023-11-22T06:08:46;28.88;;;26.48;;
20381;SDS011;10350;51.280;12.400;2023-11-22T06:11:12;27.50;;;25.40;;
20381;SDS011;10350;51.280;12.400;2023-11-22T06:13:40;26.52;;;24.85;;
20381;SDS011;10350;51.280;12.400;2023-11-22T06:16:05;28.55;;;26.55;;
20381;SDS011;10350;51.280;12.400;2023-11-22T06:18:32;29.13;;;27.23;;
20381;SDS011;10350;51.280;12.400;2023-11-22T06:20:59;30.08;;;28.17;;
20381;SDS011;10350;51.280;12.400;2023-11-22T06:23:25;29.27;;;27.33;;
20381;SDS011;10350;51.280;12.400;2023-11-22T06:25:51;28.85;;;27.02;;
20381;SDS011;10350;51.280;12.400;2023-11-22T06:28:17;30.88;;;28.45;;
20381;SDS011;10350;51.280;12.400;2023-11-22T06:30:43;27.95;;;25.98;;
20381;SDS011;10350;51.280;12.400;2023-11-22T06:33:09;28.52;;;26.50;;
20381;SDS011;10350;51.280;12.400;2023-11-22T06:35:35;27.48;;;25.45;;
20381;SDS011;10350;51.280;12.400;2023-11-22T06:38:02;29.63;;;27.40;;
20381;SDS011;10350;51.280;12.400;2023-11-22T06:40:28;27.80;;;26.13;;
20381;SDS011;10350;51.280;12.400;2023-11-22T06:42:54;31.17;;;28.88;;
20381;SDS011;10350;51.280;12.400;2023-11-22T06:45:21;30.33;;;28.38;;
20381;SDS011;10350;51.280;12.400;2023-11-22T06:47:47;29.63;;;27.42;;
20381;SDS011;10350;51.280;12.400;2023-11-22T06:50:15;28.92;;;26.90;;
20381;SDS011;10350;51.280;12.400;2023-11-22T06:52:41;27.83;;;25.88;;
20381;SDS011;10350;51.280;12.400;2023-11-22T06:55:08;30.00;;;27.67;;
20381;SDS011;10350;51.280;12.400;2023-11-22T06:57:34;30.60;;;28.55;;
20381;SDS011;10350;51.280;12.400;2023-11-22T07:00:01;28.75;;;26.45;;
20381;SDS011;10350;51.280;12.400;2023-11-22T07:02:33;27.83;;;25.83;;
20381;SDS011;10350;51.280;12.400;2023-11-22T07:05:03;28.13;;;26.13;;
20381;SDS011;10350;51.280;12.400;2023-11-22T07:07:32;27.73;;;25.48;;
20381;SDS011;10350;51.280;12.400;2023-11-22T07:09:58;27.70;;;25.83;;
20381;SDS011;10350;51.280;12.400;2023-11-22T07:12:24;29.05;;;26.83;;
20381;SDS011;10350;51.280;12.400;2023-11-22T07:14:51;28.38;;;26.35;;
20381;SDS011;10350;51.280;12.400;2023-11-22T07:17:17;26.58;;;24.60;;
20381;SDS011;10350;51.280;12.400;2023-11-22T07:19:43;28.52;;;26.33;;
20381;SDS011;10350;51.280;12.400;2023-11-22T07:22:13;28.23;;;26.05;;
20381;SDS011;10350;51.280;12.400;2023-11-22T07:24:43;29.75;;;27.42;;
20381;SDS011;10350;51.280;12.400;2023-11-22T07:27:10;27.20;;;25.20;;
20381;SDS011;10350;51.280;12.400;2023-11-22T07:29:37;27.95;;;25.92;;
20381;SDS011;10350;51.280;12.400;2023-11-22T07:32:03;27.10;;;25.02;;
20381;SDS011;10350;51.280;12.400;2023-11-22T07:34:29;27.13;;;24.58;;
20381;SDS011;10350;51.280;12.400;2023-11-22T07:36:55;28.15;;;26.23;;
20381;SDS011;10350;51.280;12.400;2023-11-22T07:39:21;27.00;;;25.02;;
20381;SDS011;10350;51.280;12.400;2023-11-22T07:41:52;28.35;;;25.98;;
20381;SDS011;10350;51.280;12.400;2023-11-22T07:44:18;29.60;;;27.23;;
20381;SDS011;10350;51.280;12.400;2023-11-22T07:46:44;31.23;;;28.60;;
20381;SDS011;10350;51.280;12.400;2023-11-22T07:49:10;30.10;;;27.90;;
20381;SDS011;10350;51.280;12.400;2023-11-22T07:51:36;30.85;;;28.63;;
20381;SDS011;10350;51.280;12.400;2023-11-22T07:54:02;32.35;;;29.95;;
20381;SDS011;10350;51.280;12.400;2023-11-22T07:56:28;30.63;;;28.35;;
20381;SDS011;10350;51.280;12.400;2023-11-22T07:58:57;31.98;;;29.58;;
20381;SDS011;10350;51.280;12.400;2023-11-22T08:01:23;34.72;;;31.95;;
20381;SDS011;10350;51.280;12.400;2023-11-22T08:03:50;30.17;;;28.15;;
20381;SDS011;10350;51.280;12.400;2023-11-22T08:06:16;31.77;;;29.48;;
20381;SDS011;10350;51.280;12.400;2023-11-22T08:08:42;28.20;;;26.10;;
20381;SDS011;10350;51.280;12.400;2023-11-22T08:11:10;31.80;;;29.20;;
20381;SDS011;10350;51.280;12.400;2023-11-22T08:13:43;29.27;;;27.23;;
20381;SDS011;10350;51.280;12.400;2023-11-22T08:16:10;28.55;;;26.60;;
20381;SDS011;10350;51.280;12.400;2023-11-22T08:21:04;34.28;;;31.65;;
20381;SDS011;10350;51.280;12.400;2023-11-22T08:23:30;29.83;;;27.63;;
20381;SDS011;10350;51.280;12.400;2023-11-22T08:25:58;30.42;;;28.13;;
20381;SDS011;10350;51.280;12.400;2023-11-22T08:28:24;31.17;;;29.05;;
20381;SDS011;10350;51.280;12.400;2023-11-22T08:30:51;30.02;;;27.90;;
20381;SDS011;10350;51.280;12.400;2023-11-22T08:33:17;32.30;;;29.98;;
20381;SDS011;10350;51.280;12.400;2023-11-22T08:35:43;31.02;;;28.80;;
20381;SDS011;10350;51.280;12.400;2023-11-22T08:38:15;32.67;;;30.08;;
20381;SDS011;10350;51.280;12.400;2023-11-22T08:40:41;33.58;;;31.02;;
20381;SDS011;10350;51.280;12.400;2023-11-22T08:43:14;32.47;;;29.50;;
20381;SDS011;10350;51.280;12.400;2023-11-22T08:45:41;33.10;;;30.85;;
20381;SDS011;10350;51.280;12.400;2023-11-22T08:48:09;33.55;;;31.05;;
20381;SDS011;10350;51.280;12.400;2023-11-22T08:50:35;32.42;;;30.25;;
20381;SDS011;10350;51.280;12.400;2023-11-22T08:53:03;32.80;;;30.33;;
20381;SDS011;10350;51.280;12.400;2023-11-22T08:55:30;32.90;;;30.45;;
20381;SDS011;10350;51.280;12.400;2023-11-22T08:57:58;36.42;;;33.85;;
20381;SDS011;10350;51.280;12.400;2023-11-22T09:00:24;33.17;;;30.92;;
20381;SDS011;10350;51.280;12.400;2023-11-22T09:02:53;32.88;;;30.45;;
20381;SDS011;10350;51.280;12.400;2023-11-22T09:05:22;31.30;;;29.13;;
20381;SDS011;10350;51.280;12.400;2023-11-22T09:07:48;33.38;;;30.50;;
20381;SDS011;10350;51.280;12.400;2023-11-22T09:10:16;33.22;;;30.77;;
20381;SDS011;10350;51.280;12.400;2023-11-22T09:12:43;33.10;;;30.50;;
20381;SDS011;10350;51.280;12.400;2023-11-22T09:15:09;32.35;;;29.58;;
20381;SDS011;10350;51.280;12.400;2023-11-22T09:17:39;31.83;;;29.73;;
20381;SDS011;10350;51.280;12.400;2023-11-22T09:20:09;30.85;;;28.80;;
20381;SDS011;10350;51.280;12.400;2023-11-22T09:22:36;33.03;;;30.42;;
20381;SDS011;10350;51.280;12.400;2023-11-22T09:25:04;34.08;;;31.48;;
20381;SDS011;10350;51.280;12.400;2023-11-22T09:27:34;33.05;;;30.90;;
20381;SDS011;10350;51.280;12.400;2023-11-22T09:30:02;30.10;;;28.05;;
20381;SDS011;10350;51.280;12.400;2023-11-22T09:32:28;31.45;;;29.25;;
20381;SDS011;10350;51.280;12.400;2023-11-22T09:34:53;30.30;;;28.30;;
20381;SDS011;10350;51.280;12.400;2023-11-22T09:37:23;31.15;;;28.95;;
20381;SDS011;10350;51.280;12.400;2023-11-22T09:39:50;30.20;;;28.10;;
20381;SDS011;10350;51.280;12.400;2023-11-22T09:42:16;29.80;;;27.48;;
20381;SDS011;10350;51.280;12.400;2023-11-22T09:44:43;29.92;;;27.73;;
20381;SDS011;10350;51.280;12.400;2023-11-22T09:47:09;29.58;;;27.23;;
20381;SDS011;10350;51.280;12.400;2023-11-22T09:49:35;30.60;;;28.23;;
20381;SDS011;10350;51.280;12.400;2023-11-22T09:52:06;30.90;;;28.63;;
20381;SDS011;10350;51.280;12.400;2023-11-22T09:54:54;31.90;;;29.48;;
20381;SDS011;10350;51.280;12.400;2023-11-22T09:57:21;29.67;;;27.20;;
20381;SDS011;10350;51.280;12.400;2023-11-22T10:02:43;31.13;;;28.88;;
20381;SDS011;10350;51.280;12.400;2023-11-22T10:05:09;28.15;;;26.02;;
20381;SDS011;10350;51.280;12.400;2023-11-22T10:07:36;29.40;;;27.15;;
20381;SDS011;10350;51.280;12.400;2023-11-22T10:10:03;30.63;;;28.52;;
20381;SDS011;10350;51.280;12.400;2023-11-22T10:12:30;29.85;;;27.42;;
20381;SDS011;10350;51.280;12.400;2023-11-22T10:15:14;30.42;;;28.15;;
20381;SDS011;10350;51.280;12.400;2023-11-22T10:17:41;31.00;;;28.80;;
20381;SDS011;10350;51.280;12.400;2023-11-22T10:20:13;32.10;;;30.00;;
20381;SDS011;10350;51.280;12.400;2023-11-22T10:22:48;34.25;;;31.88;;
20381;SDS011;10350;51.280;12.400;2023-11-22T10:25:14;33.50;;;31.23;;
20381;SDS011;10350;51.280;12.400;2023-11-22T10:27:43;32.45;;;30.08;;
20381;SDS011;10350;51.280;12.400;2023-11-22T10:30:11;30.00;;;27.83;;
20381;SDS011;10350;51.280;12.400;2023-11-22T10:32:37;29.88;;;27.80;;
20381;SDS011;10350;51.280;12.400;2023-11-22T10:35:06;31.55;;;29.10;;
20381;SDS011;10350;51.280;12.400;2023-11-22T10:37:33;31.20;;;28.88;;
20381;SDS011;10350;51.280;12.400;2023-11-22T10:39:59;32.30;;;30.02;;
20381;SDS011;10350;51.280;12.400;2023-11-22T10:42:25;31.55;;;29.40;;
20381;SDS011;10350;51.280;12.400;2023-11-22T10:44:58;31.58;;;29.48;;
20381;SDS011;10350;51.280;12.400;2023-11-22T10:50:20;31.67;;;29.30;;
20381;SDS011;10350;51.280;12.400;2023-11-22T10:52:47;30.88;;;28.58;;
20381;SDS011;10350;51.280;12.400;2023-11-22T10:55:17;28.38;;;26.38;;
20381;SDS011;10350;51.280;12.400;2023-11-22T10:57:47;29.75;;;27.45;;
20381;SDS011;10350;51.280;12.400;2023-11-22T11:00:16;28.92;;;26.63;;
20381;SDS011;10350;51.280;12.400;2023-11-22T11:02:47;28.35;;;26.30;;
20381;SDS011;10350;51.280;12.400;2023-11-22T11:05:18;29.08;;;27.00;;
20381;SDS011;10350;51.280;12.400;2023-11-22T11:07:54;26.48;;;24.50;;
20381;SDS011;10350;51.280;12.400;2023-11-22T11:10:24;27.40;;;25.13;;
20381;SDS011;10350;51.280;12.400;2023-11-22T11:12:54;28.23;;;25.42;;
20381;SDS011;10350;51.280;12.400;2023-11-22T11:15:20;27.45;;;25.35;;
20381;SDS011;10350;51.280;12.400;2023-11-22T11:17:47;27.77;;;25.75;;
20381;SDS011;10350;51.280;12.400;2023-11-22T11:20:17;28.42;;;26.42;;
20381;SDS011;10350;51.280;12.400;2023-11-22T11:22:46;26.65;;;24.65;;
20381;SDS011;10350;51.280;12.400;2023-11-22T11:25:13;26.08;;;24.15;;
20381;SDS011;10350;51.280;12.400;2023-11-22T11:27:41;28.52;;;26.33;;
20381;SDS011;10350;51.280;12.400;2023-11-22T11:35:50;26.63;;;24.83;;
20381;SDS011;10350;51.280;12.400;2023-11-22T11:38:20;26.58;;;24.67;;
20381;SDS011;10350;51.280;12.400;2023-11-22T11:44:05;25.83;;;24.15;;
20381;SDS011;10350;51.280;12.400;2023-11-22T11:46:33;27.95;;;25.77;;
20381;SDS011;10350;51.280;12.400;2023-11-22T11:48:59;27.15;;;24.80;;
20381;SDS011;10350;51.280;12.400;2023-11-22T11:51:30;26.65;;;24.63;;
20381;SDS011;10350;51.280;12.400;2023-11-22T11:54:04;27.38;;;25.42;;
20381;SDS011;10350;51.280;12.400;2023-11-22T11:58:59;27.17;;;24.98;;
20381;SDS011;10350;51.280;12.400;2023-11-22T12:01:27;28.95;;;26.67;;
20381;SDS011;10350;51.280;12.400;2023-11-22T12:03:57;30.67;;;27.98;;
20381;SDS011;10350;51.280;12.400;2023-11-22T12:06:25;27.83;;;25.88;;
20381;SDS011;10350;51.280;12.400;2023-11-22T12:08:51;28.13;;;26.08;;
20381;SDS011;10350;51.280;12.400;2023-11-22T12:11:18;28.33;;;26.27;;
20381;SDS011;10350;51.280;12.400;2023-11-22T12:13:44;28.23;;;26.25;;
20381;SDS011;10350;51.280;12.400;2023-11-22T12:16:15;29.90;;;27.70;;
20381;SDS011;10350;51.280;12.400;2023-11-22T12:18:42;29.92;;;27.52;;
20381;SDS011;10350;51.280;12.400;2023-11-22T12:21:08;29.35;;;27.17;;
20381;SDS011;10350;51.280;12.400;2023-11-22T12:23:41;26.67;;;24.95;;
20381;SDS011;10350;51.280;12.400;2023-11-22T12:26:11;27.43;;;25.50;;
20381;SDS011;10350;51.280;12.400;2023-11-22T12:28:38;26.90;;;24.95;;
20381;SDS011;10350;51.280;12.400;2023-11-22T12:31:08;27.10;;;25.15;;
20381;SDS011;10350;51.280;12.400;2023-11-22T12:33:35;28.45;;;26.25;;
20381;SDS011;10350;51.280;12.400;2023-11-22T12:36:02;28.75;;;26.77;;
20381;SDS011;10350;51.280;12.400;2023-11-22T12:38:28;29.80;;;27.45;;
20381;SDS011;10350;51.280;12.400;2023-11-22T12:40:58;29.65;;;27.73;;
20381;SDS011;10350;51.280;12.400;2023-11-22T12:43:24;30.33;;;27.92;;
20381;SDS011;10350;51.280;12.400;2023-11-22T12:46:05;30.38;;;27.92;;
20381;SDS011;10350;51.280;12.400;2023-11-22T12:48:32;29.58;;;27.50;;
20381;SDS011;10350;51.280;12.400;2023-11-22T12:50:58;29.67;;;27.42;;
20381;SDS011;10350;51.280;12.400;2023-11-22T12:53:24;31.27;;;29.27;;
20381;SDS011;10350;51.280;12.400;2023-11-22T12:55:52;29.88;;;27.65;;
20381;SDS011;10350;51.280;12.400;2023-11-22T12:58:21;31.20;;;28.60;;
20381;SDS011;10350;51.280;12.400;2023-11-22T13:00:47;32.08;;;29.67;;
20381;SDS011;10350;51.280;12.400;2023-11-22T13:03:14;31.08;;;28.58;;
20381;SDS011;10350;51.280;12.400;2023-11-22T13:05:40;27.98;;;25.90;;
20381;SDS011;10350;51.280;12.400;2023-11-22T13:08:12;30.27;;;28.08;;
20381;SDS011;10350;51.280;12.400;2023-11-22T13:10:43;27.73;;;25.67;;
20381;SDS011;10350;51.280;12.400;2023-11-22T13:13:09;29.02;;;27.08;;
20381;SDS011;10350;51.280;12.400;2023-11-22T13:15:35;28.23;;;26.33;;
20381;SDS011;10350;51.280;12.400;2023-11-22T13:18:01;28.23;;;26.08;;
20381;SDS011;10350;51.280;12.400;2023-11-22T13:20:27;28.00;;;26.08;;
20381;SDS011;10350;51.280;12.400;2023-11-22T13:22:54;27.88;;;25.98;;
20381;SDS011;10350;51.280;12.400;2023-11-22T13:25:20;28.80;;;26.85;;
20381;SDS011;10350;51.280;12.400;2023-11-22T13:30:14;27.10;;;25.00;;
20381;SDS011;10350;51.280;12.400;2023-11-22T13:32:42;27.80;;;25.70;;
20381;SDS011;10350;51.280;12.400;2023-11-22T13:35:09;26.90;;;25.10;;
20381;SDS011;10350;51.280;12.400;2023-11-22T13:37:43;27.70;;;25.80;;
20381;SDS011;10350;51.280;12.400;2023-11-22T13:40:13;25.75;;;23.92;;
20381;SDS011;10350;51.280;12.400;2023-11-22T13:42:43;27.55;;;25.70;;
20381;SDS011;10350;51.280;12.400;2023-11-22T13:45:10;26.42;;;24.63;;
20381;SDS011;10350;51.280;12.400;2023-11-22T13:47:36;25.60;;;23.75;;
20381;SDS011;10350;51.280;12.400;2023-11-22T13:50:02;26.38;;;24.15;;
20381;SDS011;10350;51.280;12.400;2023-11-22T13:52:28;25.52;;;23.55;;
20381;SDS011;10350;51.280;12.400;2023-11-22T13:54:54;27.33;;;24.92;;
20381;SDS011;10350;51.280;12.400;2023-11-22T13:57:22;26.15;;;24.33;;
20381;SDS011;10350;51.280;12.400;2023-11-22T13:59:48;26.63;;;24.63;;
20381;SDS011;10350;51.280;12.400;2023-11-22T14:02:14;25.90;;;23.88;;
20381;SDS011;10350;51.280;12.400;2023-11-22T14:04:41;28.52;;;26.50;;
20381;SDS011;10350;51.280;12.400;2023-11-22T14:07:07;26.58;;;24.73;;
20381;SDS011;10350;51.280;12.400;2023-11-22T14:09:33;27.63;;;25.58;;
20381;SDS011;10350;51.280;12.400;2023-11-22T14:12:01;26.55;;;24.70;;
20381;SDS011;10350;51.280;12.400;2023-11-22T14:14:27;24.38;;;22.58;;
20381;SDS011;10350;51.280;12.400;2023-11-22T14:16:53;26.25;;;24.48;;
20381;SDS011;10350;51.280;12.400;2023-11-22T14:19:19;27.05;;;24.90;;
20381;SDS011;10350;51.280;12.400;2023-11-22T14:21:45;28.27;;;26.05;;
20381;SDS011;10350;51.280;12.400;2023-11-22T14:24:12;26.52;;;24.75;;
20381;SDS011;10350;51.280;12.400;2023-11-22T14:26:38;26.63;;;24.45;;
20381;SDS011;10350;51.280;12.400;2023-11-22T14:29:04;27.27;;;25.38;;
20381;SDS011;10350;51.280;12.400;2023-11-22T14:31:30;25.13;;;23.13;;
20381;SDS011;10350;51.280;12.400;2023-11-22T14:33:58;25.48;;;23.67;;
20381;SDS011;10350;51.280;12.400;2023-11-22T14:36:24;27.80;;;25.80;;
20381;SDS011;10350;51.280;12.400;2023-11-22T14:38:51;28.08;;;25.67;;
20381;SDS011;10350;51.280;12.400;2023-11-22T14:41:21;28.80;;;26.50;;
20381;SDS011;10350;51.280;12.400;2023-11-22T14:43:47;26.55;;;24.58;;
20381;SDS011;10350;51.280;12.400;2023-11-22T14:46:13;27.13;;;24.95;;
20381;SDS011;10350;51.280;12.400;2023-11-22T14:48:39;26.70;;;24.90;;
20381;SDS011;10350;51.280;12.400;2023-11-22T14:51:05;28.58;;;26.15;;
20381;SDS011;10350;51.280;12.400;2023-11-22T14:53:34;27.60;;;25.38;;
20381;SDS011;10350;51.280;12.400;2023-11-22T14:55:59;28.08;;;25.98;;
20381;SDS011;10350;51.280;12.400;2023-11-22T14:58:27;26.83;;;24.92;;
20381;SDS011;10350;51.280;12.400;2023-11-22T15:00:54;27.80;;;25.80;;
20381;SDS011;10350;51.280;12.400;2023-11-22T15:03:22;27.07;;;25.13;;
20381;SDS011;10350;51.280;12.400;2023-11-22T15:05:49;26.30;;;24.45;;
20381;SDS011;10350;51.280;12.400;2023-11-22T15:08:15;28.23;;;25.70;;
20381;SDS011;10350;51.280;12.400;2023-11-22T15:10:41;28.85;;;26.65;;
20381;SDS011;10350;51.280;12.400;2023-11-22T15:13:07;27.13;;;25.13;;
20381;SDS011;10350;51.280;12.400;2023-11-22T15:15:34;28.77;;;26.70;;
20381;SDS011;10350;51.280;12.400;2023-11-22T15:18:00;26.92;;;25.13;;
20381;SDS011;10350;51.280;12.400;2023-11-22T15:20:26;26.88;;;24.75;;
20381;SDS011;10350;51.280;12.400;2023-11-22T15:22:52;27.90;;;25.55;;
20381;SDS011;10350;51.280;12.400;2023-11-22T15:25:18;26.27;;;24.33;;
20381;SDS011;10350;51.280;12.400;2023-11-22T15:27:44;26.80;;;24.98;;
20381;SDS011;10350;51.280;12.400;2023-11-22T15:30:10;26.23;;;24.25;;
20381;SDS011;10350;51.280;12.400;2023-11-22T15:32:37;26.05;;;24.10;;
20381;SDS011;10350;51.280;12.400;2023-11-22T15:35:03;26.02;;;24.23;;
20381;SDS011;10350;51.280;12.400;2023-11-22T15:37:42;27.70;;;25.70;;
20381;SDS011;10350;51.280;12.400;2023-11-22T15:40:10;29.05;;;26.73;;
20381;SDS011;10350;51.280;12.400;2023-11-22T15:42:44;26.52;;;24.50;;
20381;SDS011;10350;51.280;12.400;2023-11-22T15:45:10;30.40;;;27.90;;
20381;SDS011;10350;51.280;12.400;2023-11-22T15:47:37;31.45;;;28.50;;
20381;SDS011;10350;51.280;12.400;2023-11-22T15:50:04;28.23;;;25.98;;
20381;SDS011;10350;51.280;12.400;2023-11-22T15:52:32;29.55;;;27.05;;
20381;SDS011;10350;51.280;12.400;2023-11-22T15:54:58;27.25;;;24.98;;
20381;SDS011;10350;51.280;12.400;2023-11-22T15:57:24;29.77;;;27.17;;
20381;SDS011;10350;51.280;12.400;2023-11-22T15:59:52;32.08;;;29.05;;
20381;SDS011;10350;51.280;12.400;2023-11-22T16:02:32;29.27;;;27.17;;
20381;SDS011;10350;51.280;12.400;2023-11-22T16:04:58;30.27;;;27.25;;
20381;SDS011;10350;51.280;12.400;2023-11-22T16:07:24;28.08;;;25.77;;
20381;SDS011;10350;51.280;12.400;2023-11-22T16:09:55;29.10;;;26.90;;
20381;SDS011;10350;51.280;12.400;2023-11-22T16:12:24;28.52;;;26.08;;
20381;SDS011;10350;51.280;12.400;2023-11-22T16:14:56;30.02;;;27.27;;
20381;SDS011;10350;51.280;12.400;2023-11-22T16:17:34;29.00;;;26.85;;
20381;SDS011;10350;51.280;12.400;2023-11-22T16:20:04;29.00;;;26.55;;
20381;SDS011;10350;51.280;12.400;2023-11-22T16:22:36;29.13;;;26.67;;
20381;SDS011;10350;51.280;12.400;2023-11-22T16:25:07;30.38;;;27.77;;
20381;SDS011;10350;51.280;12.400;2023-11-22T16:27:33;28.58;;;26.30;;
20381;SDS011;10350;51.280;12.400;2023-11-22T16:30:00;28.95;;;26.02;;
20381;SDS011;10350;51.280;12.400;2023-11-22T16:32:28;33.72;;;30.75;;
20381;SDS011;10350;51.280;12.400;2023-11-22T16:34:54;29.70;;;27.10;;
20381;SDS011;10350;51.280;12.400;2023-11-22T16:37:20;30.85;;;28.48;;
20381;SDS011;10350;51.280;12.400;2023-11-22T16:39:48;34.47;;;31.27;;
20381;SDS011;10350;51.280;12.400;2023-11-22T16:42:14;35.65;;;32.20;;
20381;SDS011;10350;51.280;12.400;2023-11-22T16:44:43;31.50;;;28.88;;
20381;SDS011;10350;51.280;12.400;2023-11-22T16:47:10;33.38;;;30.15;;
20381;SDS011;10350;51.280;12.400;2023-11-22T16:49:43;27.17;;;25.02;;
20381;SDS011;10350;51.280;12.400;2023-11-22T16:52:09;26.98;;;24.90;;
20381;SDS011;10350;51.280;12.400;2023-11-22T16:54:37;27.10;;;25.10;;
20381;SDS011;10350;51.280;12.400;2023-11-22T16:57:05;27.95;;;25.85;;
20381;SDS011;10350;51.280;12.400;2023-11-22T16:59:31;28.10;;;25.98;;
20381;SDS011;10350;51.280;12.400;2023-11-22T17:01:57;27.05;;;24.77;;
20381;SDS011;10350;51.280;12.400;2023-11-22T17:04:24;26.55;;;24.50;;
20381;SDS011;10350;51.280;12.400;2023-11-22T17:06:50;26.73;;;24.73;;
20381;SDS011;10350;51.280;12.400;2023-11-22T17:09:17;27.40;;;25.20;;
20381;SDS011;10350;51.280;12.400;2023-11-22T17:11:43;28.15;;;25.80;;
20381;SDS011;10350;51.280;12.400;2023-11-22T17:14:09;28.63;;;26.45;;
20381;SDS011;10350;51.280;12.400;2023-11-22T17:19:38;25.77;;;23.80;;
20381;SDS011;10350;51.280;12.400;2023-11-22T17:22:05;28.35;;;25.30;;
20381;SDS011;10350;51.280;12.400;2023-11-22T17:24:32;28.48;;;26.27;;
20381;SDS011;10350;51.280;12.400;2023-11-22T17:26:58;27.42;;;25.33;;